sensor_id;sensor_type;location;lat;lon;timestamp;pressure;altitude;pressure_sealevel;temperature;humidity
706;BME280;21234;48.690;9.016;2024-02-26T00:00:03;94246.47;;;5.98;71.05
706;BME280;21234;48.690;9.016;2024-02-26T00:02:34;94239.16;;;5.73;68.45
706;BME280;21234;48.690;9.016;2024-02-26T00:05:04;94238.63;;;5.81;69.99
706;BME280;21234;48.690;9.016;2024-02-26T00:07:32;94231.91;;;5.84;71.16
706;BME280;21234;48.690;9.016;2024-02-26T00:09:59;94240.78;;;5.89;71.54
706;BME280;21234;48.690;9.016;2024-02-26T00:12:26;94238.09;;;5.84;70.08
706;BME280;21234;48.690;9.016;2024-02-26T00:14:53;94239.72;;;5.75;69.87
706;BME280;21234;48.690;9.016;2024-02-26T00:17:20;94244.03;;;5.76;67.98
706;BME280;21234;48.690;9.016;2024-02-26T00:19:46;94237.56;;;5.77;67.55
706;BME280;21234;48.690;9.016;2024-02-26T00:22:13;94232.44;;;5.81;66.26
706;BME280;21234;48.690;9.016;2024-02-26T00:24:41;94228.66;;;5.92;66.96
706;BME280;21234;48.690;9.016;2024-02-26T00:27:08;94236.22;;;6.00;67.99
706;BME280;21234;48.690;9.016;2024-02-26T00:29:35;94226.50;;;6.04;67.42
706;BME280;21234;48.690;9.016;2024-02-26T00:32:01;94232.19;;;6.07;68.03
706;BME280;21234;48.690;9.016;2024-02-26T00:34:28;94227.06;;;6.06;65.28
706;BME280;21234;48.690;9.016;2024-02-26T00:36:55;94238.09;;;6.10;66.31
706;BME280;21234;48.690;9.016;2024-02-26T00:39:21;94228.13;;;6.10;64.73
706;BME280;21234;48.690;9.016;2024-02-26T00:41:49;94227.31;;;6.10;62.62
706;BME280;21234;48.690;9.016;2024-02-26T00:44:17;94220.31;;;6.14;61.94
706;BME280;21234;48.690;9.016;2024-02-26T00:46:44;94238.06;;;6.20;61.81
706;BME280;21234;48.690;9.016;2024-02-26T00:49:11;94233.75;;;6.19;63.50
706;BME280;21234;48.690;9.016;2024-02-26T00:51:37;94231.63;;;6.16;65.30
706;BME280;21234;48.690;9.016;2024-02-26T00:54:04;94220.31;;;6.14;66.47
706;BME280;21234;48.690;9.016;2024-02-26T00:56:31;94218.41;;;6.09;64.35
706;BME280;21234;48.690;9.016;2024-02-26T00:58:59;94210.06;;;6.05;61.37
706;BME280;21234;48.690;9.016;2024-02-26T01:01:26;94206.28;;;6.12;58.55
706;BME280;21234;48.690;9.016;2024-02-26T01:03:52;94197.06;;;6.18;60.18
706;BME280;21234;48.690;9.016;2024-02-26T01:06:19;94195.22;;;6.13;62.32
706;BME280;21234;48.690;9.016;2024-02-26T01:08:47;94199.53;;;6.09;59.66
706;BME280;21234;48.690;9.016;2024-02-26T01:11:14;94218.41;;;6.09;60.57
706;BME280;21234;48.690;9.016;2024-02-26T01:13:40;94208.97;;;6.06;59.06
706;BME280;21234;48.690;9.016;2024-02-26T01:16:09;94207.63;;;6.14;57.88
706;BME280;21234;48.690;9.016;2024-02-26T01:18:36;94211.13;;;6.15;55.56
706;BME280;21234;48.690;9.016;2024-02-26T01:21:03;94214.06;;;6.18;56.08
706;BME280;21234;48.690;9.016;2024-02-26T01:23:32;94235.38;;;6.20;56.98
706;BME280;21234;48.690;9.016;2024-02-26T01:25:59;94228.94;;;6.16;58.45
706;BME280;21234;48.690;9.016;2024-02-26T01:28:25;94232.44;;;6.11;59.13
706;BME280;21234;48.690;9.016;2024-02-26T01:30:52;94252.13;;;6.12;59.83
706;BME280;21234;48.690;9.016;2024-02-26T01:33:20;94243.50;;;6.04;60.28
706;BME280;21234;48.690;9.016;2024-02-26T01:35:47;94242.16;;;6.02;60.63
706;BME280;21234;48.690;9.016;2024-02-26T01:38:13;94243.50;;;6.04;59.83
706;BME280;21234;48.690;9.016;2024-02-26T01:40:40;94246.75;;;6.06;59.96
706;BME280;21234;48.690;9.016;2024-02-26T01:43:07;94251.31;;;6.16;60.84
706;BME280;21234;48.690;9.016;2024-02-26T01:45:34;94249.13;;;6.18;59.81
706;BME280;21234;48.690;9.016;2024-02-26T01:48:01;94256.41;;;6.18;60.69
706;BME280;21234;48.690;9.016;2024-02-26T01:50:29;94264.81;;;6.16;59.69
706;BME280;21234;48.690;9.016;2024-02-26T01:52:57;94273.16;;;6.20;64.15
706;BME280;21234;48.690;9.016;2024-02-26T01:55:24;94277.22;;;6.07;64.52
706;BME280;21234;48.690;9.016;2024-02-26T01:57:53;94275.06;;;6.14;62.03
706;BME280;21234;48.690;9.016;2024-02-26T02:00:21;94271.28;;;6.10;61.25
706;BME280;21234;48.690;9.016;2024-02-26T02:02:48;94283.44;;;6.13;59.30
706;BME280;21234;48.690;9.016;2024-02-26T02:05:15;94283.13;;;6.29;62.49
706;BME280;21234;48.690;9.016;2024-02-26T02:07:44;94291.22;;;6.29;65.01
706;BME280;21234;48.690;9.016;2024-02-26T02:10:12;94275.84;;;6.25;65.86
706;BME280;21234;48.690;9.016;2024-02-26T02:12:39;94269.91;;;6.23;68.76
706;BME280;21234;48.690;9.016;2024-02-26T02:15:07;94261.81;;;6.28;72.57
706;BME280;21234;48.690;9.016;2024-02-26T02:17:34;94259.66;;;6.30;73.54
706;BME280;21234;48.690;9.016;2024-02-26T02:20:01;94259.66;;;6.30;75.38
706;BME280;21234;48.690;9.016;2024-02-26T02:22:30;94257.22;;;6.38;69.27
706;BME280;21234;48.690;9.016;2024-02-26T02:24:57;94252.91;;;6.43;70.41
706;BME280;21234;48.690;9.016;2024-02-26T02:27:25;94260.41;;;6.56;66.39
706;BME280;21234;48.690;9.016;2024-02-26T02:29:52;94254.16;;;6.76;65.66
706;BME280;21234;48.690;9.016;2024-02-26T02:32:20;94262.25;;;6.81;65.78
706;BME280;21234;48.690;9.016;2024-02-26T02:34:48;94270.31;;;6.86;65.82
706;BME280;21234;48.690;9.016;2024-02-26T02:37:14;94274.91;;;6.85;66.25
706;BME280;21234;48.690;9.016;2024-02-26T02:39:43;94273.53;;;6.88;66.99
706;BME280;21234;48.690;9.016;2024-02-26T02:42:10;94274.38;;;6.83;64.91
706;BME280;21234;48.690;9.016;2024-02-26T02:44:37;94263.34;;;6.80;63.68
706;BME280;21234;48.690;9.016;2024-02-26T02:47:04;94263.34;;;6.80;62.45
706;BME280;21234;48.690;9.016;2024-02-26T02:49:30;94262.53;;;6.79;62.82
706;BME280;21234;48.690;9.016;2024-02-26T02:51:57;94259.28;;;6.82;61.94
706;BME280;21234;48.690;9.016;2024-02-26T02:54:24;94251.72;;;6.79;64.20
706;BME280;21234;48.690;9.016;2024-02-26T02:56:52;94246.88;;;6.71;65.70
706;BME280;21234;48.690;9.016;2024-02-26T02:59:19;94257.97;;;6.64;64.84
706;BME280;21234;48.690;9.016;2024-02-26T03:01:45;94259.59;;;6.55;65.28
706;BME280;21234;48.690;9.016;2024-02-26T03:04:12;94253.91;;;6.67;63.97
706;BME280;21234;48.690;9.016;2024-02-26T03:06:39;94260.38;;;6.76;64.58
706;BME280;21234;48.690;9.016;2024-02-26T03:09:05;94256.03;;;6.80;66.68
706;BME280;21234;48.690;9.016;2024-02-26T03:11:32;94264.44;;;6.73;68.60
706;BME280;21234;48.690;9.016;2024-02-26T03:14:00;94266.31;;;6.68;70.07
706;BME280;21234;48.690;9.016;2024-02-26T03:16:27;94251.22;;;6.67;71.45
706;BME280;21234;48.690;9.016;2024-02-26T03:18:54;94266.34;;;6.63;72.56
706;BME280;21234;48.690;9.016;2024-02-26T03:21:21;94261.75;;;6.63;71.93
706;BME280;21234;48.690;9.016;2024-02-26T03:23:48;94257.69;;;6.61;71.65
706;BME280;21234;48.690;9.016;2024-02-26T03:26:14;94246.34;;;6.64;71.68
706;BME280;21234;48.690;9.016;2024-02-26T03:28:41;94235.03;;;6.62;73.70
706;BME280;21234;48.690;9.016;2024-02-26T03:31:09;94228.81;;;6.61;75.65
706;BME280;21234;48.690;9.016;2024-02-26T03:33:37;94223.94;;;6.63;73.43
706;BME280;21234;48.690;9.016;2024-02-26T03:36:04;94218.00;;;6.61;74.75
706;BME280;21234;48.690;9.016;2024-02-26T03:38:32;94215.31;;;6.61;75.58
706;BME280;21234;48.690;9.016;2024-02-26T03:40:59;94212.38;;;6.53;76.08
706;BME280;21234;48.690;9.016;2024-02-26T03:43:26;94221.84;;;6.45;76.81
706;BME280;21234;48.690;9.016;2024-02-26T03:45:52;94214.56;;;6.40;76.86
706;BME280;21234;48.690;9.016;2024-02-26T03:48:20;94219.69;;;6.42;77.00
706;BME280;21234;48.690;9.016;2024-02-26T03:50:47;94213.50;;;6.42;76.17
706;BME280;21234;48.690;9.016;2024-02-26T03:53:13;94221.31;;;6.43;73.26
706;BME280;21234;48.690;9.016;2024-02-26T03:55:40;94215.38;;;6.46;75.56
706;BME280;21234;48.690;9.016;2024-02-26T03:58:07;94200.25;;;6.45;76.96
706;BME280;21234;48.690;9.016;2024-02-26T04:00:34;94199.47;;;6.45;76.79
706;BME280;21234;48.690;9.016;2024-02-26T04:03:01;94191.91;;;6.47;77.22
706;BME280;21234;48.690;9.016;2024-02-26T04:05:29;94192.94;;;6.51;75.88
706;BME280;21234;48.690;9.016;2024-02-26T04:07:55;94198.91;;;6.43;76.41
706;BME280;21234;48.690;9.016;2024-02-26T04:10:22;94197.59;;;6.30;76.83
706;BME280;21234;48.690;9.016;2024-02-26T04:12:49;94205.69;;;6.25;75.98
706;BME280;21234;48.690;9.016;2024-02-26T04:15:16;94210.81;;;6.31;78.02
706;BME280;21234;48.690;9.016;2024-02-26T04:17:43;94217.81;;;6.32;77.25
706;BME280;21234;48.690;9.016;2024-02-26T04:20:14;94210.81;;;6.31;78.92
706;BME280;21234;48.690;9.016;2024-02-26T04:22:42;94217.03;;;6.27;80.61
706;BME280;21234;48.690;9.016;2024-02-26T04:25:09;94220.28;;;6.19;77.77
706;BME280;21234;48.690;9.016;2024-02-26T04:27:36;94220.81;;;6.21;77.53
706;BME280;21234;48.690;9.016;2024-02-26T04:30:04;94225.97;;;6.17;78.39
706;BME280;21234;48.690;9.016;2024-02-26T04:32:31;94219.50;;;6.13;78.43
706;BME280;21234;48.690;9.016;2024-02-26T04:34:58;94222.19;;;6.08;78.69
706;BME280;21234;48.690;9.016;2024-02-26T04:37:25;94221.13;;;6.09;78.76
706;BME280;21234;48.690;9.016;2024-02-26T04:39:57;94221.13;;;6.09;77.65
706;BME280;21234;48.690;9.016;2024-02-26T04:42:24;94224.09;;;6.13;74.87
706;BME280;21234;48.690;9.016;2024-02-26T04:44:51;94230.00;;;6.15;73.38
706;BME280;21234;48.690;9.016;2024-02-26T04:47:17;94236.19;;;6.30;71.08
706;BME280;21234;48.690;9.016;2024-02-26T04:49:44;94238.88;;;6.35;71.11
706;BME280;21234;48.690;9.016;2024-02-26T04:52:11;94236.72;;;6.32;72.59
706;BME280;21234;48.690;9.016;2024-02-26T04:54:38;94230.78;;;6.25;72.20
706;BME280;21234;48.690;9.016;2024-02-26T04:57:06;94224.31;;;6.21;71.52
706;BME280;21234;48.690;9.016;2024-02-26T04:59:33;94228.38;;;6.19;72.29
706;BME280;21234;48.690;9.016;2024-02-26T05:01:59;94236.50;;;6.14;72.98
706;BME280;21234;48.690;9.016;2024-02-26T05:04:26;94244.03;;;6.12;74.20
706;BME280;21234;48.690;9.016;2024-02-26T05:06:53;94243.22;;;6.06;73.80
706;BME280;21234;48.690;9.016;2024-02-26T05:09:19;94244.59;;;6.03;75.98
706;BME280;21234;48.690;9.016;2024-02-26T05:11:46;94242.97;;;6.02;76.19
706;BME280;21234;48.690;9.016;2024-02-26T05:14:14;94247.00;;;6.00;77.03
706;BME280;21234;48.690;9.016;2024-02-26T05:16:41;94251.31;;;5.96;79.29
706;BME280;21234;48.690;9.016;2024-02-26T05:19:08;94246.19;;;5.99;83.34
706;BME280;21234;48.690;9.016;2024-02-26T05:21:34;94257.25;;;5.93;79.50
706;BME280;21234;48.690;9.016;2024-02-26T05:24:01;94271.28;;;5.90;79.90
706;BME280;21234;48.690;9.016;2024-02-26T05:26:28;94279.09;;;5.91;79.17
706;BME280;21234;48.690;9.016;2024-02-26T05:28:54;94278.03;;;5.92;80.21
706;BME280;21234;48.690;9.016;2024-02-26T05:31:26;94280.97;;;5.91;80.89
706;BME280;21234;48.690;9.016;2024-02-26T05:33:54;94286.91;;;5.93;81.07
706;BME280;21234;48.690;9.016;2024-02-26T05:36:21;94286.66;;;5.89;81.65
706;BME280;21234;48.690;9.016;2024-02-26T05:38:48;94291.47;;;5.82;82.45
706;BME280;21234;48.690;9.016;2024-02-26T05:41:15;94290.94;;;5.80;84.97
706;BME280;21234;48.690;9.016;2024-02-26T05:43:42;94296.84;;;5.72;90.48
706;BME280;21234;48.690;9.016;2024-02-26T05:46:08;94292.81;;;5.74;89.98
706;BME280;21234;48.690;9.016;2024-02-26T05:48:36;94290.38;;;5.68;91.54
706;BME280;21234;48.690;9.016;2024-02-26T05:51:04;94285.50;;;5.60;95.41
706;BME280;21234;48.690;9.016;2024-02-26T05:53:31;94288.75;;;5.52;97.83
706;BME280;21234;48.690;9.016;2024-02-26T05:55:57;94289.81;;;5.51;96.85
706;BME280;21234;48.690;9.016;2024-02-26T05:58:24;94288.72;;;5.47;97.07
706;BME280;21234;48.690;9.016;2024-02-26T06:00:51;94292.78;;;5.44;97.38
706;BME280;21234;48.690;9.016;2024-02-26T06:03:18;94286.03;;;5.47;97.48
706;BME280;21234;48.690;9.016;2024-02-26T06:05:46;94282.78;;;5.39;96.10
706;BME280;21234;48.690;9.016;2024-02-26T06:08:12;94284.41;;;5.40;97.25
706;BME280;21234;48.690;9.016;2024-02-26T06:10:39;94284.38;;;5.35;97.51
706;BME280;21234;48.690;9.016;2024-02-26T06:13:06;94288.69;;;5.36;100.00
706;BME280;21234;48.690;9.016;2024-02-26T06:15:32;94288.72;;;5.47;100.00
706;BME280;21234;48.690;9.016;2024-02-26T06:17:59;94291.44;;;5.47;100.00
706;BME280;21234;48.690;9.016;2024-02-26T06:20:25;94296.84;;;5.52;99.49
706;BME280;21234;48.690;9.016;2024-02-26T06:22:54;94293.31;;;5.46;99.91
706;BME280;21234;48.690;9.016;2024-02-26T06:25:20;94302.19;;;5.42;98.23
706;BME280;21234;48.690;9.016;2024-02-26T06:27:47;94307.53;;;5.31;94.90
706;BME280;21234;48.690;9.016;2024-02-26T06:30:14;94315.06;;;5.24;92.65
706;BME280;21234;48.690;9.016;2024-02-26T06:32:40;94307.03;;;5.39;97.97
706;BME280;21234;48.690;9.016;2024-02-26T06:35:07;94313.50;;;5.44;99.06
706;BME280;21234;48.690;9.016;2024-02-26T06:37:36;94318.06;;;5.33;95.04
706;BME280;21234;48.690;9.016;2024-02-26T06:40:06;94316.97;;;5.34;97.60
706;BME280;21234;48.690;9.016;2024-02-26T06:42:33;94322.16;;;5.46;99.19
706;BME280;21234;48.690;9.016;2024-02-26T06:44:59;94321.88;;;5.47;99.50
706;BME280;21234;48.690;9.016;2024-02-26T06:47:26;94331.88;;;5.62;100.00
706;BME280;21234;48.690;9.016;2024-02-26T06:49:53;94333.47;;;5.58;99.88
706;BME280;21234;48.690;9.016;2024-02-26T06:52:23;94330.00;;;5.67;100.00
706;BME280;21234;48.690;9.016;2024-02-26T06:54:50;94344.28;;;5.63;100.00
706;BME280;21234;48.690;9.016;2024-02-26T06:57:19;94348.31;;;5.65;100.00
706;BME280;21234;48.690;9.016;2024-02-26T06:59:46;94355.88;;;5.63;98.28
706;BME280;21234;48.690;9.016;2024-02-26T07:02:13;94352.66;;;5.71;99.24
706;BME280;21234;48.690;9.016;2024-02-26T07:04:40;94358.34;;;5.75;100.00
706;BME280;21234;48.690;9.016;2024-02-26T07:07:07;94357.81;;;5.78;100.00
706;BME280;21234;48.690;9.016;2024-02-26T07:09:33;94352.69;;;5.82;100.00
706;BME280;21234;48.690;9.016;2024-02-26T07:12:00;94358.88;;;5.77;100.00
706;BME280;21234;48.690;9.016;2024-02-26T07:14:29;94365.34;;;5.76;100.00
706;BME280;21234;48.690;9.016;2024-02-26T07:16:55;94365.34;;;5.76;99.34
706;BME280;21234;48.690;9.016;2024-02-26T07:19:23;94362.09;;;5.74;96.83
706;BME280;21234;48.690;9.016;2024-02-26T07:21:50;94355.38;;;5.82;98.37
706;BME280;21234;48.690;9.016;2024-02-26T07:24:16;94361.31;;;5.84;99.06
706;BME280;21234;48.690;9.016;2024-02-26T07:26:43;94354.59;;;5.91;100.00
706;BME280;21234;48.690;9.016;2024-02-26T07:29:10;94356.50;;;5.91;100.00
706;BME280;21234;48.690;9.016;2024-02-26T07:31:38;94359.19;;;5.96;100.00
706;BME280;21234;48.690;9.016;2024-02-26T07:34:04;94356.25;;;6.02;100.00
706;BME280;21234;48.690;9.016;2024-02-26T07:36:31;94353.00;;;6.00;99.64
706;BME280;21234;48.690;9.016;2024-02-26T07:38:58;94357.59;;;6.05;100.00
706;BME280;21234;48.690;9.016;2024-02-26T07:41:24;94359.50;;;6.04;100.00
706;BME280;21234;48.690;9.016;2024-02-26T07:43:51;94361.13;;;6.05;100.00
706;BME280;21234;48.690;9.016;2024-02-26T07:46:18;94359.22;;;6.11;100.00
706;BME280;21234;48.690;9.016;2024-02-26T07:48:46;94364.38;;;6.13;100.00
706;BME280;21234;48.690;9.016;2024-02-26T07:51:12;94367.59;;;6.10;98.28
706;BME280;21234;48.690;9.016;2024-02-26T07:53:40;94363.81;;;6.05;97.94
706;BME280;21234;48.690;9.016;2024-02-26T07:56:07;94367.31;;;6.01;96.31
706;BME280;21234;48.690;9.016;2024-02-26T07:58:33;94368.38;;;6.00;96.48
706;BME280;21234;48.690;9.016;2024-02-26T08:01:00;94368.38;;;5.95;95.18
706;BME280;21234;48.690;9.016;2024-02-26T08:03:27;94370.00;;;6.01;97.18
706;BME280;21234;48.690;9.016;2024-02-26T08:05:55;94365.69;;;6.05;97.38
706;BME280;21234;48.690;9.016;2024-02-26T08:08:21;94365.44;;;6.06;96.21
706;BME280;21234;48.690;9.016;2024-02-26T08:10:48;94365.44;;;6.06;94.25
706;BME280;21234;48.690;9.016;2024-02-26T08:13:15;94363.81;;;6.16;94.83
706;BME280;21234;48.690;9.016;2024-02-26T08:15:41;94352.19;;;6.20;94.51
706;BME280;21234;48.690;9.016;2024-02-26T08:18:08;94357.88;;;6.19;93.06
706;BME280;21234;48.690;9.016;2024-02-26T08:20:34;94357.34;;;6.22;92.11
706;BME280;21234;48.690;9.016;2024-02-26T08:23:03;94359.50;;;6.25;91.40
706;BME280;21234;48.690;9.016;2024-02-26T08:25:29;94366.78;;;6.29;90.56
706;BME280;21234;48.690;9.016;2024-02-26T08:27:56;94362.22;;;6.40;91.01
706;BME280;21234;48.690;9.016;2024-02-26T08:30:23;94371.13;;;6.46;90.87
706;BME280;21234;48.690;9.016;2024-02-26T08:32:49;94367.03;;;6.53;91.00
706;BME280;21234;48.690;9.016;2024-02-26T08:35:16;94372.47;;;6.48;90.00
706;BME280;21234;48.690;9.016;2024-02-26T08:37:44;94373.53;;;6.57;90.09
706;BME280;21234;48.690;9.016;2024-02-26T08:40:12;94383.78;;;6.65;89.24
706;BME280;21234;48.690;9.016;2024-02-26T08:42:39;94376.50;;;6.71;89.40
706;BME280;21234;48.690;9.016;2024-02-26T08:45:07;94384.06;;;6.79;89.25
706;BME280;21234;48.690;9.016;2024-02-26T08:47:34;94390.53;;;6.73;89.70
706;BME280;21234;48.690;9.016;2024-02-26T08:50:01;94392.44;;;6.62;87.62
706;BME280;21234;48.690;9.016;2024-02-26T08:52:27;94396.19;;;6.61;89.01
706;BME280;21234;48.690;9.016;2024-02-26T08:54:54;94397.28;;;6.65;88.83
706;BME280;21234;48.690;9.016;2024-02-26T08:57:22;94399.72;;;6.67;88.08
706;BME280;21234;48.690;9.016;2024-02-26T08:59:49;94398.09;;;6.71;86.20
706;BME280;21234;48.690;9.016;2024-02-26T09:02:16;94399.19;;;6.80;86.87
706;BME280;21234;48.690;9.016;2024-02-26T09:04:42;94396.72;;;6.84;84.94
706;BME280;21234;48.690;9.016;2024-02-26T09:07:09;94400.50;;;6.93;85.32
706;BME280;21234;48.690;9.016;2024-02-26T09:09:36;94398.31;;;6.95;84.57
706;BME280;21234;48.690;9.016;2024-02-26T09:12:03;94399.69;;;6.92;82.52
706;BME280;21234;48.690;9.016;2024-02-26T09:14:31;94394.53;;;6.96;85.73
706;BME280;21234;48.690;9.016;2024-02-26T09:16:58;94395.34;;;7.12;87.07
706;BME280;21234;48.690;9.016;2024-02-26T09:19:26;94393.69;;;7.16;86.83
706;BME280;21234;48.690;9.016;2024-02-26T09:21:52;94392.59;;;7.17;85.73
706;BME280;21234;48.690;9.016;2024-02-26T09:24:22;94388.53;;;7.29;84.99
706;BME280;21234;48.690;9.016;2024-02-26T09:26:49;94387.16;;;7.32;83.08
706;BME280;21234;48.690;9.016;2024-02-26T09:29:16;94393.38;;;7.37;84.48
706;BME280;21234;48.690;9.016;2024-02-26T09:31:44;94390.59;;;7.48;86.79
706;BME280;21234;48.690;9.016;2024-02-26T09:34:12;94393.28;;;7.58;84.68
706;BME280;21234;48.690;9.016;2024-02-26T09:36:39;94389.44;;;7.69;86.21
706;BME280;21234;48.690;9.016;2024-02-26T09:39:06;94382.66;;;7.77;84.64
706;BME280;21234;48.690;9.016;2024-02-26T09:41:36;94385.81;;;7.94;83.70
706;BME280;21234;48.690;9.016;2024-02-26T09:44:04;94387.22;;;8.25;83.79
706;BME280;21234;48.690;9.016;2024-02-26T09:46:31;94393.91;;;8.43;80.52
706;BME280;21234;48.690;9.016;2024-02-26T09:48:59;94392.66;;;8.64;79.73
706;BME280;21234;48.690;9.016;2024-02-26T09:51:26;94398.66;;;8.90;77.59
706;BME280;21234;48.690;9.016;2024-02-26T09:53:54;94405.66;;;8.96;75.48
706;BME280;21234;48.690;9.016;2024-02-26T09:56:23;94404.81;;;9.01;75.99
706;BME280;21234;48.690;9.016;2024-02-26T09:58:50;94407.75;;;9.04;75.54
706;BME280;21234;48.690;9.016;2024-02-26T10:01:20;94402.22;;;9.15;76.27
706;BME280;21234;48.690;9.016;2024-02-26T10:03:55;94406.78;;;9.19;72.39
706;BME280;21234;48.690;9.016;2024-02-26T10:06:24;94417.78;;;9.33;72.77
706;BME280;21234;48.690;9.016;2024-02-26T10:08:51;94424.63;;;9.49;71.76
706;BME280;21234;48.690;9.016;2024-02-26T10:11:19;94411.53;;;9.56;70.36
706;BME280;21234;48.690;9.016;2024-02-26T10:13:47;94406.84;;;9.86;71.05
706;BME280;21234;48.690;9.016;2024-02-26T10:16:13;94416.66;;;10.05;67.95
706;BME280;21234;48.690;9.016;2024-02-26T10:18:47;94417.31;;;10.16;67.37
706;BME280;21234;48.690;9.016;2024-02-26T10:21:16;94409.97;;;10.17;66.39
706;BME280;21234;48.690;9.016;2024-02-26T10:23:44;94410.84;;;10.12;63.14
706;BME280;21234;48.690;9.016;2024-02-26T10:26:13;94411.72;;;10.07;60.76
706;BME280;21234;48.690;9.016;2024-02-26T10:28:41;94403.50;;;10.13;60.31
706;BME280;21234;48.690;9.016;2024-02-26T10:31:08;94415.38;;;10.22;59.86
706;BME280;21234;48.690;9.016;2024-02-26T10:33:35;94416.47;;;10.21;59.65
706;BME280;21234;48.690;9.016;2024-02-26T10:36:02;94407.84;;;10.14;58.19
706;BME280;21234;48.690;9.016;2024-02-26T10:38:29;94404.59;;;10.11;58.71
706;BME280;21234;48.690;9.016;2024-02-26T10:40:57;94409.50;;;10.09;58.02
706;BME280;21234;48.690;9.016;2024-02-26T10:43:25;94419.84;;;10.07;57.98
706;BME280;21234;48.690;9.016;2024-02-26T10:45:52;94430.38;;;10.14;59.26
706;BME280;21234;48.690;9.016;2024-02-26T10:48:18;94418.38;;;10.20;59.82
706;BME280;21234;48.690;9.016;2024-02-26T10:50:46;94421.69;;;10.36;59.61
706;BME280;21234;48.690;9.016;2024-02-26T10:53:16;94439.00;;;10.40;59.26
706;BME280;21234;48.690;9.016;2024-02-26T10:55:48;94427.34;;;10.39;56.63
706;BME280;21234;48.690;9.016;2024-02-26T10:58:16;94425.22;;;10.55;59.73
706;BME280;21234;48.690;9.016;2024-02-26T11:00:43;94431.00;;;10.67;56.93
706;BME280;21234;48.690;9.016;2024-02-26T11:03:13;94431.84;;;10.82;59.25
706;BME280;21234;48.690;9.016;2024-02-26T11:05:43;94433.84;;;10.95;60.99
706;BME280;21234;48.690;9.016;2024-02-26T11:08:11;94436.38;;;11.05;58.50
706;BME280;21234;48.690;9.016;2024-02-26T11:10:38;94453.19;;;11.07;56.74
706;BME280;21234;48.690;9.016;2024-02-26T11:13:09;94446.25;;;11.01;55.95
706;BME280;21234;48.690;9.016;2024-02-26T11:15:40;94445.53;;;10.95;56.73
706;BME280;21234;48.690;9.016;2024-02-26T11:18:08;94444.41;;;10.77;55.35
706;BME280;21234;48.690;9.016;2024-02-26T11:20:38;94440.25;;;10.66;55.31
706;BME280;21234;48.690;9.016;2024-02-26T11:23:06;94446.44;;;10.53;54.58
706;BME280;21234;48.690;9.016;2024-02-26T11:25:34;94450.19;;;10.38;52.27
706;BME280;21234;48.690;9.016;2024-02-26T11:28:03;94455.16;;;10.50;53.91
706;BME280;21234;48.690;9.016;2024-02-26T11:30:33;94455.75;;;10.47;52.48
706;BME280;21234;48.690;9.016;2024-02-26T11:33:06;94460.38;;;10.47;53.25
706;BME280;21234;48.690;9.016;2024-02-26T11:35:34;94458.09;;;10.54;54.04
706;BME280;21234;48.690;9.016;2024-02-26T11:38:03;94449.88;;;10.59;53.30
706;BME280;21234;48.690;9.016;2024-02-26T11:40:32;94450.66;;;10.40;51.72
706;BME280;21234;48.690;9.016;2024-02-26T11:42:59;94455.38;;;10.35;53.28
706;BME280;21234;48.690;9.016;2024-02-26T11:45:48;94457.94;;;10.45;53.72
706;BME280;21234;48.690;9.016;2024-02-26T11:48:20;94457.59;;;10.52;53.79
706;BME280;21234;48.690;9.016;2024-02-26T11:50:49;94455.59;;;10.57;53.68
706;BME280;21234;48.690;9.016;2024-02-26T11:53:26;94455.91;;;10.56;54.91
706;BME280;21234;48.690;9.016;2024-02-26T11:56:21;94450.59;;;10.46;53.76
706;BME280;21234;48.690;9.016;2024-02-26T11:58:53;94458.38;;;10.52;55.82
706;BME280;21234;48.690;9.016;2024-02-26T12:01:43;94459.56;;;10.46;53.19
706;BME280;21234;48.690;9.016;2024-02-26T12:04:17;94459.72;;;10.36;54.39
706;BME280;21234;48.690;9.016;2024-02-26T12:06:47;94464.69;;;10.29;54.56
706;BME280;21234;48.690;9.016;2024-02-26T12:09:30;94464.75;;;10.24;56.40
706;BME280;21234;48.690;9.016;2024-02-26T12:11:57;94466.47;;;10.15;55.61
706;BME280;21234;48.690;9.016;2024-02-26T12:14:25;94470.81;;;10.16;55.34
706;BME280;21234;48.690;9.016;2024-02-26T12:16:53;94472.69;;;10.20;55.14
706;BME280;21234;48.690;9.016;2024-02-26T12:19:23;94476.94;;;10.26;56.09
706;BME280;21234;48.690;9.016;2024-02-26T12:21:51;94471.16;;;10.33;56.98
706;BME280;21234;48.690;9.016;2024-02-26T12:24:19;94483.34;;;10.35;55.22
706;BME280;21234;48.690;9.016;2024-02-26T12:26:46;94471.59;;;10.40;56.00
706;BME280;21234;48.690;9.016;2024-02-26T12:29:13;94475.84;;;10.46;54.32
706;BME280;21234;48.690;9.016;2024-02-26T12:31:40;94477.63;;;10.56;54.58
706;BME280;21234;48.690;9.016;2024-02-26T12:34:07;94476.91;;;10.69;54.94
706;BME280;21234;48.690;9.016;2024-02-26T12:36:36;94473.16;;;10.84;54.27
706;BME280;21234;48.690;9.016;2024-02-26T12:39:04;94466.78;;;11.07;56.20
706;BME280;21234;48.690;9.016;2024-02-26T12:41:32;94474.88;;;11.12;53.89
706;BME280;21234;48.690;9.016;2024-02-26T12:43:59;94465.75;;;11.22;54.50
706;BME280;21234;48.690;9.016;2024-02-26T12:46:25;94460.50;;;11.25;54.67
706;BME280;21234;48.690;9.016;2024-02-26T12:48:55;94462.94;;;11.27;53.29
706;BME280;21234;48.690;9.016;2024-02-26T12:51:23;94473.75;;;11.32;54.05
706;BME280;21234;48.690;9.016;2024-02-26T12:53:51;94471.63;;;11.42;54.50
706;BME280;21234;48.690;9.016;2024-02-26T12:56:19;94475.28;;;11.52;55.29
706;BME280;21234;48.690;9.016;2024-02-26T12:58:46;94471.28;;;11.63;53.63
706;BME280;21234;48.690;9.016;2024-02-26T13:01:15;94470.28;;;11.72;54.15
706;BME280;21234;48.690;9.016;2024-02-26T13:03:42;94480.34;;;11.72;52.18
706;BME280;21234;48.690;9.016;2024-02-26T13:06:09;94484.03;;;11.81;53.09
706;BME280;21234;48.690;9.016;2024-02-26T13:08:37;94483.00;;;11.77;53.35
706;BME280;21234;48.690;9.016;2024-02-26T13:11:05;94483.44;;;11.84;51.79
706;BME280;21234;48.690;9.016;2024-02-26T13:13:32;94485.16;;;12.07;54.75
706;BME280;21234;48.690;9.016;2024-02-26T13:16:02;94486.88;;;12.17;52.41
706;BME280;21234;48.690;9.016;2024-02-26T13:18:30;94477.78;;;12.22;54.04
706;BME280;21234;48.690;9.016;2024-02-26T13:21:07;94482.13;;;12.23;52.02
706;BME280;21234;48.690;9.016;2024-02-26T13:23:34;94480.81;;;12.34;53.47
706;BME280;21234;48.690;9.016;2024-02-26T13:26:01;94488.09;;;12.25;52.08
706;BME280;21234;48.690;9.016;2024-02-26T13:28:29;94480.88;;;12.42;53.54
706;BME280;21234;48.690;9.016;2024-02-26T13:30:57;94489.88;;;12.57;53.24